Latest Weather Observations for Walgett

IDN60801

Issued at 2:04 pm EDT Tuesday 3 March 2015 (issued every 30 minutes, with the page automatically refreshed every 10 minutes)

About weather observations | Map of weather stations | Latest weather observations for NSW | Other Formats
Station Details ID: 052088 Name: WALGETT AIRPORT AWS Lat: -30.04 Lon: 148.12 Height: 133.0 m
Data from the previous 72 hours. | See also: Recent months at Walgett
Date/Time
EDT
Temp
°C
App
Temp
°C
Dew
Point
Rel
Hum
%
Delta-T
°C
Wind Press
QNH
hPa
Press
MSL
hPa
Rain
since 9 am
mm
Dir
 
Spd
km/h
Gust
km/h
Spd
kts
Gust
kts
03/02:00pm 36.5 35.5 17.6 32 12.3 NNW 19 35 10 19 1011.5 1010.8 0.0
03/01:30pm 36.2 35.1 17.8 33 12.0 N 20 37 11 20 1012.1 1011.4 0.0
03/01:00pm 34.8 33.0 17.9 36 11.0 NNW 24 39 13 21 1012.8 1012.2 0.0
03/12:30pm 34.3 32.5 17.9 37 10.7 N 24 35 13 19 1013.1 1012.5 0.0
03/12:00pm 33.2 31.2 18.2 41 9.8 N 26 35 14 19 1013.7 1013.1 0.0
03/11:30am 32.3 30.0 18.5 44 9.0 N 28 39 15 21 1014.0 1013.4 0.0
03/11:00am 31.4 28.7 18.4 46 8.4 N 30 39 16 21 1014.4 1013.8 0.0
03/10:30am 30.3 27.6 18.4 49 7.7 N 30 39 16 21 1014.6 1014.0 0.0
03/10:05am 30.0 27.7 18.4 49 7.5 N 28 46 15 25 1014.9 1014.3 0.0
03/10:00am 29.3 26.2 18.4 51 7.0 NNE 32 46 17 25 1014.8 1014.2 0.0
03/09:30am 28.3 25.3 17.8 53 6.7 NNE 30 39 16 21 1015.0 1014.4 0.0
03/09:00am 27.7 24.6 17.5 53 6.5 NNE 30 37 16 20 1014.9 1014.3 0.0
03/08:30am 26.4 22.8 17.2 57 5.8 NNE 32 43 17 23 1014.5 1013.9 0.0
03/08:00am 25.6 22.6 16.7 58 5.5 NNE 28 35 15 19 1014.2 1013.6 0.0
03/07:30am 24.9 21.8 16.6 60 5.1 NNE 28 37 15 20 1013.7 1013.1 0.0
03/07:00am 24.7 20.8 16.4 60 5.1 NNE 32 41 17 22 1013.1 1012.5 0.0
03/06:30am 24.8 21.3 16.5 60 5.1 NNE 30 41 16 22 1012.9 1012.3 0.0
03/06:00am 25.1 21.1 16.3 58 5.4 NE 32 44 17 24 1012.5 1011.9 0.0
03/05:30am 25.4 21.5 16.5 58 5.5 NE 32 39 17 21 1012.2 1011.5 0.0
03/05:00am 25.7 22.2 16.5 56 5.7 NE 30 41 16 22 1012.0 1011.3 0.0
03/04:33am 26.0 22.9 16.5 55 5.9 NE 28 41 15 22 1011.9 1011.2 0.0
03/04:30am 25.9 23.2 16.5 56 5.8 NE 26 33 14 18 1012.1 1011.4 0.0
03/04:00am 26.5 22.7 16.7 55 6.1 NE 32 46 17 25 1012.0 1011.3 0.0
03/03:30am 26.8 24.1 16.7 54 6.3 NE 26 37 14 20 1011.9 1011.2 0.0
03/03:00am 27.2 23.3 16.5 52 6.7 NE 32 46 17 25 1011.6 1010.9 0.0
03/02:36am 27.8 24.5 16.1 49 7.3 NE 28 35 15 19 1011.4 1010.7 0.0
03/02:30am 27.8 24.5 16.1 49 7.3 NE 28 37 15 20 1011.5 1010.8 0.0
03/02:00am 28.0 25.3 15.6 46 7.6 ENE 24 32 13 17 1011.5 1010.8 0.0
03/01:30am 27.7 24.9 15.4 47 7.5 E 24 32 13 17 1011.5 1010.8 0.0
03/01:00am 28.2 25.7 15.1 44 8.0 E 22 35 12 19 1011.5 1010.8 0.0
03/12:30am 29.1 26.2 15.2 42 8.5 E 24 35 13 19 1011.6 1010.9 0.0
03/12:00am 29.9 26.1 14.8 39 9.3 E 28 39 15 21 1011.6 1010.9 0.0
 
Date/Time
EDT
Temp
°C
App
Temp
°C
Dew
Point
Rel
Hum
%
Delta-T
°C
Wind Press
QNH
hPa
Press
MSL
hPa
Rain
since 9 am
mm
Dir
 
Spd
km/h
Gust
km/h
Spd
kts
Gust
kts
02/11:30pm 30.4 26.5 14.5 38 9.7 E 28 39 15 21 1011.3 1010.6 0.0
02/11:00pm 30.7 27.5 13.0 33 10.6 E 22 32 12 17 1011.0 1010.3 0.0
02/10:30pm 30.4 28.9 10.4 29 11.5 E 9 13 5 7 1010.9 1010.2 0.0
02/10:00pm 31.1 29.2 10.4 28 11.9 E 11 13 6 7 1010.8 1010.1 0.0
02/09:30pm 32.0 29.9 11.2 28 12.2 E 13 17 7 9 1010.5 1009.8 0.0
02/09:00pm 32.5 30.8 11.1 27 12.5 ESE 11 15 6 8 1010.3 1009.6 0.0
02/08:30pm 33.5 31.5 11.4 26 13.0 ESE 13 17 7 9 1010.0 1009.3 0.0
02/08:00pm 34.3 32.5 12.0 25 13.3 ESE 13 19 7 10 1009.6 1008.9 0.0
02/07:30pm 35.3 33.6 12.3 25 13.9 E 13 17 7 9 1009.2 1008.6 0.0
02/07:00pm 35.9 33.9 12.8 25 14.1 ESE 15 22 8 12 1008.9 1008.3 0.0
02/06:30pm 36.9 35.0 13.0 24 14.6 ESE 15 19 8 10 1008.5 1007.9 0.0
02/06:00pm 36.6 35.7 11.4 22 15.1 NNW 7 11 4 6 1008.3 1007.7 0.0
02/05:30pm 37.0 35.1 11.8 22 15.2 ENE 13 19 7 10 1008.2 1007.6 0.0
02/05:00pm 38.2 36.2 12.7 21 15.6 SE 15 22 8 12 1008.2 1007.6 0.0
02/04:30pm 37.5 36.0 10.7 20 15.9 WNW 9 17 5 9 1008.3 1007.7 0.0
02/04:00pm 38.8 37.1 12.5 21 16.1 NNW 13 19 7 10 1008.6 1008.0 0.0
02/03:30pm 36.8 36.2 14.7 26 13.9 N 11 17 6 9 1009.0 1008.4 0.0
02/03:00pm 36.3 35.8 15.9 29 13.0 NNW 13 20 7 11 1009.8 1009.1 0.0
02/02:30pm 35.9 35.5 17.1 32 12.1 E 15 30 8 16 1010.2 1009.5 0.0
02/02:00pm 35.0 34.2 17.2 34 11.5 NE 17 28 9 15 1010.7 1010.0 0.0
02/01:30pm 35.2 34.4 17.9 36 11.3 NE 19 32 10 17 1011.2 1010.5 0.0
02/01:00pm 33.1 32.0 17.7 40 10.0 NE 20 30 11 16 1011.8 1011.1 0.0
02/12:30pm 32.7 31.9 18.5 43 9.3 ENE 20 33 11 18 1012.2 1011.5 0.0
02/12:00pm 32.0 30.9 18.6 45 8.7 NE 22 32 12 17 1012.9 1012.3 0.0
02/11:30am 31.4 29.3 18.0 44 8.6 NE 26 33 14 18 1013.0 1012.4 0.0
02/11:00am 30.6 28.9 18.0 47 8.1 ENE 24 33 13 18 1013.0 1012.4 0.0
02/10:30am 28.6 26.3 17.5 51 7.0 ENE 26 35 14 19 1013.3 1012.7 0.0
02/10:00am 27.7 25.7 17.5 53 6.5 ENE 24 35 13 19 1013.1 1012.5 0.0
02/09:30am 26.1 24.0 17.2 58 5.6 E 24 37 13 20 1013.1 1012.5 0.0
02/09:00am 25.0 23.0 17.5 63 4.7 E 24 32 13 17 1013.0 1012.4 0.0
02/08:30am 23.9 22.0 17.6 68 3.9 E 24 30 13 16 1012.8 1012.2 0.0
02/08:00am 23.1 21.9 17.6 71 3.4 E 20 30 11 16 1012.7 1012.1 0.0
02/07:30am 22.4 21.8 17.5 74 3.0 E 17 22 9 12 1012.1 1011.4 0.0
02/07:00am 22.1 21.5 17.5 75 2.9 E 17 20 9 11 1011.6 1010.9 0.0
02/06:30am 22.1 22.2 17.5 75 2.9 ESE 13 17 7 9 1011.3 1010.6 0.0
02/06:00am 22.3 22.0 17.4 74 3.0 E 15 19 8 10 1011.1 1010.4 0.0
02/05:30am 22.6 23.1 17.5 73 3.2 E 11 15 6 8 1011.1 1010.4 0.0
02/05:00am 23.1 23.4 18.0 73 3.2 E 13 17 7 9 1010.7 1010.0 0.0
02/04:30am 23.5 24.4 18.4 73 3.2 E 11 19 6 10 1010.6 1009.9 0.0
02/04:00am 23.9 24.8 18.5 72 3.4 E 11 17 6 9 1010.5 1009.8 0.0
02/03:30am 23.9 24.6 18.8 73 3.3 ESE 13 19 7 10 1010.4 1009.7 0.0
02/03:00am 24.1 25.0 19.2 74 3.1 SE 13 19 7 10 1010.1 1009.4 0.0
02/02:30am 24.1 25.3 18.3 70 3.7 SSE 9 13 5 7 1010.0 1009.3 0.0
02/02:00am 24.4 24.8 18.1 68 4.0 SSE 13 17 7 9 1010.2 1009.5 0.0
02/01:30am 24.7 24.9 18.6 69 3.9 SSE 15 19 8 10 1010.4 1009.7 0.0
02/01:00am 24.8 25.1 17.8 65 4.4 SSE 13 17 7 9 1010.2 1009.5 0.0
02/12:30am 25.4 25.6 17.6 62 4.9 S 13 19 7 10 1010.3 1009.6 0.0
02/12:00am 26.2 26.8 17.8 60 5.3 SSE 11 17 6 9 1010.3 1009.6 0.0
 
Date/Time
EDT
Temp
°C
App
Temp
°C
Dew
Point
Rel
Hum
%
Delta-T
°C
Wind Press
QNH
hPa
Press
MSL
hPa
Rain
since 9 am
mm
Dir
 
Spd
km/h
Gust
km/h
Spd
kts
Gust
kts
01/11:30pm 27.2 29.0 18.8 60 5.4 SSE 7 17 4 9 1010.2 1009.5 0.0
01/11:00pm 27.2 26.7 17.7 56 6.0 NE 17 20 9 11 1010.0 1009.3 0.0
01/10:30pm 27.5 26.7 17.1 53 6.5 E 17 28 9 15 1009.9 1009.2 0.0
01/10:00pm 27.9 27.2 16.5 50 7.1 E 15 22 8 12 1009.3 1008.7 0.0
01/09:30pm 28.0 27.6 19.0 58 5.8 ENE 19 24 10 13 1009.1 1008.5 0.0
01/09:09pm 28.1 25.8 19.3 58 5.7 ENE 30 43 16 23 1008.6 1008.0 0.0
01/09:00pm 28.6 26.5 19.0 56 6.2 ENE 28 43 15 23 1008.2 1007.6 0.0
01/08:30pm 28.8 25.9 18.0 52 6.9 ENE 30 43 16 23 1007.4 1006.8 0.0
01/08:18pm 29.8 27.4 17.3 47 7.9 E 26 48 14 26 1006.9 1006.3 0.0
01/08:07pm 31.9 31.5 16.2 38 9.9 E 13 17 7 9 1006.3 1005.7 0.0
01/08:00pm 32.0 31.6 16.3 39 9.9 ESE 13 20 7 11 1006.1 1005.5 0.0
01/07:37pm 33.5 33.0 15.0 32 11.5 SSW 11 24 6 13 1005.8 1005.1 0.0
01/07:36pm 33.6 32.8 15.1 33 11.5 S 13 24 7 13 1005.8 1005.1 0.0
01/07:30pm 33.8 32.7 15.3 33 11.6 SSW 15 24 8 13 1005.9 1005.3 0.0
01/07:00pm 35.4 34.2 14.1 28 13.2 SE 13 17 7 9 1005.2 1004.5 0.0
01/06:30pm 36.0 35.6 15.2 29 13.1 E 11 15 6 8 1004.9 1004.2 0.0
01/06:00pm 36.0 34.9 15.2 29 13.1 E 15 20 8 11 1004.7 1004.0 0.0
01/05:30pm 36.0 33.7 14.6 27 13.4 ESE 20 28 11 15 1004.6 1003.9 0.0
01/05:00pm 38.3 37.6 15.4 25 14.6 ESE 13 22 7 12 1004.5 1003.8 0.0
01/04:30pm 38.1 38.5 16.4 27 14.0 N 9 19 5 10 1004.6 1003.9 0.0
01/04:00pm 36.9 36.0 15.9 28 13.4 NE 15 20 8 11 1005.0 1004.3 0.0
01/03:30pm 39.0 38.0 16.6 27 14.5 ENE 17 24 9 13 1005.4 1004.7 0.0
01/03:00pm 36.7 35.9 14.1 26 14.1 E 11 20 6 11 1006.0 1005.4 0.0
01/02:30pm 38.4 38.7 16.1 27 14.3 S 9 13 5 7 1006.1 1005.5 0.0
01/02:00pm 36.8 37.3 17.4 32 12.6 NNE 11 19 6 10 1006.4 1005.8 0.0
01/01:30pm 36.1 37.3 18.2 34 11.7 SE 9 15 5 8 1006.9 1006.3 0.0
01/01:00pm 34.9 36.2 17.6 35 11.2 N 7 13 4 7 1007.4 1006.8 0.0
01/12:30pm 34.5 35.2 18.9 39 10.3 NE 13 20 7 11 1007.9 1007.3 0.0
01/12:00pm 34.4 35.6 20.0 42 9.6 N 13 24 7 13 1008.2 1007.6 0.0
01/11:30am 33.0 32.9 19.5 45 8.9 N 19 41 10 22 1008.4 1007.8 0.0
01/11:00am 32.4 31.7 19.6 46 8.5 NNE 22 33 12 18 1008.5 1007.9 0.0
01/10:30am 31.5 30.8 19.5 49 7.9 N 22 32 12 17 1008.5 1007.7 0.0
01/10:00am 30.6 28.5 19.0 50 7.6 NNE 28 35 15 19 1008.5 1007.7 0.0
01/09:30am 29.7 27.8 19.4 54 6.7 NNE 28 39 15 21 1008.4 1007.6 0.0
01/09:00am 28.3 26.1 18.7 56 6.2 NNE 28 37 15 20 1008.0 1007.2 0.0
01/08:30am 27.1 25.6 19.4 62 5.0 NE 26 33 14 18 1007.8 1007.0 0.0
01/08:00am 25.6 23.7 19.3 68 4.1 NE 28 35 15 19 1007.3 1006.5 0.0
01/07:30am 25.5 24.5 18.9 67 4.2 NE 22 30 12 16 1007.0 1006.2 0.0
01/07:00am 25.5 25.1 18.9 67 4.2 NE 19 24 10 13 1006.8 1006.0 0.0
01/06:30am 25.4 25.5 19.1 68 4.1 NE 17 22 9 12 1006.4 1005.6 0.0
01/06:00am 25.4 25.5 19.1 68 4.1 NE 17 20 9 11 1006.2 1005.4 0.0
01/05:30am 25.7 25.2 19.1 67 4.3 NE 20 24 11 13 1005.9 1005.1 0.0
01/05:00am 25.5 25.9 18.9 67 4.2 ENE 15 19 8 10 1005.8 1005.0 0.0
01/04:30am 25.7 26.1 18.9 66 4.4 NE 15 19 8 10 1005.8 1005.0 0.0
01/04:00am 25.7 25.3 18.9 66 4.4 NE 19 26 10 14 1005.7 1004.9 0.0
01/03:30am 26.0 25.4 18.4 63 4.8 NE 19 22 10 12 1005.7 1004.9 0.0
01/03:00am 26.5 25.7 18.4 61 5.2 NE 20 28 11 15 1006.0 1005.2 0.0
01/02:30am 27.0 26.5 18.6 60 5.4 NE 19 24 10 13 1006.3 1005.5 0.0
01/02:00am 26.5 26.3 18.6 62 5.1 NE 17 20 9 11 1006.5 1005.7 0.0
01/01:30am 26.3 26.8 18.4 61 5.0 NE 13 19 7 10 1007.1 1006.3 0.0
01/01:00am 26.3 27.5 18.2 61 5.2 ENE 9 15 5 8 1007.3 1006.5 0.0
01/12:30am 26.5 26.9 18.1 60 5.3 NE 13 17 7 9 1007.4 1006.6 0.0
01/12:00am 26.9 26.9 18.2 59 5.6 NE 15 19 8 10 1007.4 1006.6 0.0
 
Date/Time
EDT
Temp
°C
App
Temp
°C
Dew
Point
Rel
Hum
%
Delta-T
°C
Wind Press
QNH
hPa
Press
MSL
hPa
Rain
since 9 am
mm
Dir
 
Spd
km/h
Gust
km/h
Spd
kts
Gust
kts
28/11:30pm 27.2 27.8 17.7 56 6.0 NE 11 15 6 8 1007.4 1006.6 0.0
28/11:00pm 27.5 27.3 17.7 55 6.2 NE 15 20 8 11 1007.4 1006.6 0.0
28/10:30pm 27.4 27.4 18.1 57 5.9 NE 15 17 8 9 1007.4 1006.6 0.0
28/10:00pm 28.1 27.9 18.5 56 6.2 NE 17 22 9 12 1007.3 1006.5 0.0
28/09:30pm 28.7 28.4 19.1 56 6.2 NE 19 24 10 13 1006.9 1006.1 0.0
28/09:00pm 29.0 28.5 19.0 54 6.5 NE 20 30 11 16 1006.8 1006.0 0.0
28/08:48pm 29.2 28.0 19.2 54 6.5 NE 24 32 13 17 1006.7 1005.9 0.0
28/08:30pm 30.5 28.6 18.6 49 7.7 NE 26 39 14 21 1006.3 1005.5 0.0
28/08:26pm 30.7 29.1 18.4 47 8.0 NE 24 32 13 17 1006.2 1005.4 0.0
28/08:00pm 32.2 31.7 19.1 45 8.6 ENE 20 30 11 16 1005.5 1004.7 0.0
28/07:30pm 32.4 31.8 18.9 44 8.8 ENE 20 28 11 15 1005.0 1004.2 0.0
28/07:00pm 33.0 31.8 18.4 42 9.5 ENE 22 32 12 17 1004.8 1004.0 0.0
28/06:30pm 33.4 32.6 18.0 40 10.0 ENE 19 24 10 13 1004.6 1003.8 0.0
28/06:00pm 33.4 32.2 17.5 38 10.3 ENE 20 28 11 15 1004.4 1003.6 0.0
28/05:30pm 34.4 32.1 17.6 37 10.9 ENE 26 35 14 19 1004.5 1003.7 0.0
28/05:00pm 34.0 30.4 17.7 38 10.6 ENE 33 44 18 24 1004.5 1003.7 0.0
28/04:39pm 34.4 31.6 17.2 36 11.1 ENE 28 50 15 27 1004.2 1003.4 0.0
28/04:30pm 35.7 33.5 17.9 35 11.6 ENE 26 41 14 22 1004.3 1003.5 0.0
28/04:00pm 35.9 34.7 16.1 30 12.7 ENE 17 30 9 16 1004.5 1003.7 0.0
28/03:30pm 35.9 34.5 16.6 31 12.4 NE 19 28 10 15 1004.7 1003.9 0.0
28/03:00pm 36.5 35.7 16.1 29 13.1 NE 15 30 8 16 1005.3 1004.5 0.0
28/02:30pm 36.3 34.7 14.9 28 13.4 ENE 17 28 9 15 1005.6 1004.8 0.0

Other Formats:

Comma delimited format used in spreadsheet applications
http://www.bom.gov.au/fwo/IDN60801/IDN60801.95715.axf

JavaScript Object Notation format (JSON) in row-major order
http://www.bom.gov.au/fwo/IDN60801/IDN60801.95715.json